createdAt,value
2017-04-01T00:00:18.555Z,931.05
2017-04-01T00:00:37.880Z,931.08
2017-04-01T00:00:57.220Z,931.09
2017-04-01T00:01:16.564Z,931.04
2017-04-01T00:01:34.330Z,931.1
2017-04-01T00:01:53.632Z,931.06
2017-04-01T00:02:11.918Z,931.12
2017-04-01T00:02:30.749Z,931.05
2017-04-01T00:02:50.069Z,931.06
2017-04-01T00:03:09.399Z,931.02
2017-04-01T00:03:28.771Z,931.03
2017-04-01T00:03:47.569Z,931.08
2017-04-01T00:04:06.997Z,931.07
2017-04-01T00:04:26.319Z,931.09
2017-04-01T00:04:45.656Z,931.03
2017-04-01T00:05:05.001Z,931.05
2017-04-01T00:05:23.826Z,931.01
2017-04-01T00:05:42.620Z,931.01
2017-04-01T00:06:01.421Z,931.04
2017-04-01T00:06:20.724Z,931.03
2017-04-01T00:06:40.077Z,931.05
2017-04-01T00:06:58.874Z,931.03
2017-04-01T00:07:17.689Z,931.04
2017-04-01T00:07:37.001Z,931.04
2017-04-01T00:07:56.315Z,931.04
2017-04-01T00:08:15.647Z,931.06
2017-04-01T00:08:34.968Z,931.07
2017-04-01T00:08:54.285Z,931.03
2017-04-01T00:09:13.606Z,931.07
2017-04-01T00:09:32.915Z,931.07
2017-04-01T00:09:52.218Z,931.1
2017-04-01T00:10:11.509Z,931.14
2017-04-01T00:10:30.800Z,931.11
2017-04-01T00:10:50.097Z,931.11
2017-04-01T00:11:09.391Z,931.11
2017-04-01T00:11:28.688Z,931.11
2017-04-01T00:11:47.989Z,931.1
2017-04-01T00:12:07.289Z,931.1
2017-04-01T00:12:26.618Z,931.11
2017-04-01T00:12:45.954Z,931.11
2017-04-01T00:13:05.265Z,931.12
2017-04-01T00:13:24.590Z,931.09
2017-04-01T00:13:43.900Z,931.12
2017-04-01T00:14:03.229Z,931.12
2017-04-01T00:14:21.513Z,931.1
2017-04-01T00:14:40.799Z,931.13
2017-04-01T00:15:00.114Z,931.11
2017-04-01T00:15:19.467Z,931.12
2017-04-01T00:15:38.786Z,931.1
2017-04-01T00:15:57.563Z,931.14
2017-04-01T00:16:16.894Z,931.14
2017-04-01T00:16:35.695Z,931.14
2017-04-01T00:16:54.993Z,931.15
2017-04-01T00:17:14.300Z,931.1
2017-04-01T00:17:33.646Z,931.15
2017-04-01T00:17:52.996Z,931.08
2017-04-01T00:18:12.309Z,931.1
2017-04-01T00:18:31.612Z,931.09
2017-04-01T00:18:50.945Z,931.11
2017-04-01T00:19:09.839Z,931.12
2017-04-01T00:19:29.202Z,931.09
2017-04-01T00:19:48.516Z,931.1
2017-04-01T00:20:07.832Z,931.07
2017-04-01T00:20:26.619Z,931.13
2017-04-01T00:20:45.923Z,931.12
2017-04-01T00:21:04.730Z,931.11
2017-04-01T00:21:23.536Z,931.1
2017-04-01T00:21:42.861Z,931.11
2017-04-01T00:22:02.193Z,931.02
2017-04-01T00:22:21.000Z,931.1
2017-04-01T00:22:39.800Z,931.09
2017-04-01T00:22:59.095Z,931.12
2017-04-01T00:23:17.899Z,931.2
2017-04-01T00:23:37.229Z,931.08
2017-04-01T00:23:56.558Z,931.13
2017-04-01T00:24:15.865Z,931.09
2017-04-01T00:24:34.157Z,931.1
2017-04-01T00:24:53.504Z,931.1
2017-04-01T00:25:12.837Z,931.1
2017-04-01T00:25:32.127Z,931.18
2017-04-01T00:25:51.451Z,931.13
2017-04-01T00:26:10.257Z,931.15
2017-04-01T00:26:29.565Z,931.16
2017-04-01T00:26:48.873Z,931.14
2017-04-01T00:27:07.657Z,931.18
2017-04-01T00:27:26.940Z,931.14
2017-04-01T00:27:46.243Z,931.2
2017-04-01T00:28:05.030Z,931.18
2017-04-01T00:28:23.849Z,931.14
2017-04-01T00:28:43.175Z,931.2
2017-04-01T00:29:01.995Z,931.17
2017-04-01T00:29:21.333Z,931.16
2017-04-01T00:29:40.155Z,931.21
2017-04-01T00:29:59.479Z,931.25
2017-04-01T00:30:18.269Z,931.24
2017-04-01T00:30:37.569Z,931.19
2017-04-01T00:30:55.881Z,931.2
2017-04-01T00:31:14.685Z,931.17
2017-04-01T00:31:33.990Z,931.21
2017-04-01T00:31:53.319Z,931.21
2017-04-01T00:32:12.675Z,931.21
2017-04-01T00:32:31.978Z,931.26
2017-04-01T00:32:50.766Z,931.28
2017-04-01T00:33:09.052Z,931.2
2017-04-01T00:33:28.363Z,931.25
2017-04-01T00:33:47.183Z,931.31
2017-04-01T00:34:06.502Z,931.19
2017-04-01T00:34:25.292Z,931.25
2017-04-01T00:34:44.619Z,931.28
2017-04-01T00:35:03.922Z,931.31
2017-04-01T00:35:23.241Z,931.27
2017-04-01T00:35:42.571Z,931.28
2017-04-01T00:36:01.883Z,931.28
2017-04-01T00:36:20.169Z,931.33
2017-04-01T00:36:38.468Z,931.32
2017-04-01T00:36:57.293Z,931.32
2017-04-01T00:37:16.126Z,931.31
2017-04-01T00:37:35.433Z,931.35
2017-04-01T00:37:54.217Z,931.3
2017-04-01T00:38:13.502Z,931.3
2017-04-01T00:38:32.296Z,931.32
2017-04-01T00:38:51.079Z,931.33
2017-04-01T00:39:09.991Z,931.31
2017-04-01T00:39:29.306Z,931.33
2017-04-01T00:39:48.070Z,931.32
2017-04-01T00:40:07.367Z,931.37
2017-04-01T00:40:26.155Z,931.36
2017-04-01T00:40:45.487Z,931.36
2017-04-01T00:41:04.848Z,931.35
2017-04-01T00:41:23.629Z,931.35
2017-04-01T00:41:42.930Z,931.36
2017-04-01T00:42:01.773Z,931.33
2017-04-01T00:42:21.089Z,931.32
2017-04-01T00:42:40.404Z,931.32
2017-04-01T00:42:59.248Z,931.33
2017-04-01T00:43:18.027Z,931.32
2017-04-01T00:43:37.616Z,931.31
2017-04-01T00:43:56.583Z,931.28
2017-04-01T00:44:15.885Z,931.29
2017-04-01T00:44:35.182Z,931.26
2017-04-01T00:44:53.973Z,931.25
2017-04-01T00:45:13.279Z,931.24
2017-04-01T00:45:31.584Z,931.26
2017-04-01T00:45:50.367Z,931.19
2017-04-01T00:46:09.654Z,931.19
2017-04-01T00:46:28.989Z,931.2
2017-04-01T00:46:46.761Z,931.2
2017-04-01T00:47:06.067Z,931.23
2017-04-01T00:47:25.352Z,931.2
2017-04-01T00:47:44.647Z,931.16
2017-04-01T00:48:03.979Z,931.16
2017-04-01T00:48:23.288Z,931.15
2017-04-01T00:48:42.601Z,931.16
2017-04-01T00:49:01.913Z,931.16
2017-04-01T00:49:21.225Z,931.17
2017-04-01T00:49:40.604Z,931.19
2017-04-01T00:49:59.890Z,931.19
2017-04-01T00:50:19.179Z,931.19
2017-04-01T00:50:38.543Z,931.21
2017-04-01T00:50:57.864Z,931.15
2017-04-01T00:51:17.166Z,931.2
2017-04-01T00:51:36.517Z,931.18
2017-04-01T00:51:55.828Z,931.22
2017-04-01T00:52:14.622Z,931.22
2017-04-01T00:52:33.983Z,931.18
2017-04-01T00:52:52.791Z,931.18
2017-04-01T00:53:12.113Z,931.14
2017-04-01T00:53:31.445Z,931.15
2017-04-01T00:53:50.762Z,931.18
2017-04-01T00:54:09.714Z,931.16
2017-04-01T00:54:29.035Z,931.14
2017-04-01T00:54:47.863Z,931.13
2017-04-01T00:55:07.178Z,931.18
2017-04-01T00:55:26.488Z,931.16
2017-04-01T00:55:45.777Z,931.17
2017-04-01T00:56:05.099Z,931.12
2017-04-01T00:56:24.440Z,931.13
2017-04-01T00:56:43.779Z,931.13
2017-04-01T00:57:03.094Z,931.17
2017-04-01T00:57:21.883Z,931.12
2017-04-01T00:57:41.218Z,931.19
2017-04-01T00:58:00.554Z,931.16
2017-04-01T00:58:19.359Z,931.16
2017-04-01T00:58:38.694Z,931.16
2017-04-01T00:58:57.498Z,931.14
2017-04-01T00:59:17.030Z,931.19
2017-04-01T00:59:36.363Z,931.15
2017-04-01T00:59:55.713Z,931.16
2017-04-01T01:00:14.000Z,931.04
2017-04-01T01:00:32.797Z,931.1
2017-04-01T01:00:52.129Z,931.13
2017-04-01T01:01:11.477Z,931.12
2017-04-01T01:01:30.274Z,931.15
2017-04-01T01:01:49.054Z,931.1
2017-04-01T01:02:07.821Z,931.14
2017-04-01T01:02:26.604Z,931.11
2017-04-01T01:02:45.934Z,931.11
2017-04-01T01:03:05.237Z,931.13
2017-04-01T01:03:24.599Z,931.14
2017-04-01T01:03:43.921Z,931.16
2017-04-01T01:04:03.219Z,931.16
2017-04-01T01:04:22.534Z,931.19
2017-04-01T01:04:41.323Z,931.2
2017-04-01T01:05:00.175Z,931.19
2017-04-01T01:05:18.985Z,931.16
2017-04-01T01:05:37.757Z,931.16
2017-04-01T01:05:57.076Z,931.16
2017-04-01T01:06:15.999Z,931.16
2017-04-01T01:06:35.300Z,931.17
2017-04-01T01:06:54.610Z,931.14
2017-04-01T01:07:13.938Z,931.22
2017-04-01T01:07:33.247Z,931.2
2017-04-01T01:07:52.570Z,931.2
2017-04-01T01:08:11.885Z,931.19
2017-04-01T01:08:31.200Z,931.2
2017-04-01T01:08:50.491Z,931.23
2017-04-01T01:09:10.096Z,931.21
2017-04-01T01:09:29.385Z,931.21
2017-04-01T01:09:48.695Z,931.19
2017-04-01T01:10:07.524Z,931.19
2017-04-01T01:10:26.868Z,931.23
2017-04-01T01:10:46.205Z,931.21
2017-04-01T01:11:05.512Z,931.25
2017-04-01T01:11:24.814Z,931.23
2017-04-01T01:11:43.609Z,931.25
2017-04-01T01:12:02.958Z,931.22
2017-04-01T01:12:21.744Z,931.25
2017-04-01T01:12:40.563Z,931.24
2017-04-01T01:12:59.351Z,931.28
2017-04-01T01:13:18.678Z,931.2
2017-04-01T01:13:38.013Z,931.22
2017-04-01T01:13:57.347Z,931.24
2017-04-01T01:14:16.857Z,931.23
2017-04-01T01:14:35.666Z,931.2
2017-04-01T01:14:54.958Z,931.21
2017-04-01T01:15:14.273Z,931.2
2017-04-01T01:15:33.605Z,931.22
2017-04-01T01:15:52.412Z,931.19
2017-04-01T01:16:11.202Z,931.19
2017-04-01T01:16:30.025Z,931.17
2017-04-01T01:16:48.821Z,931.18
2017-04-01T01:17:07.648Z,931.18
2017-04-01T01:17:26.950Z,931.16
2017-04-01T01:17:45.249Z,931.17
2017-04-01T01:18:04.550Z,931.16
2017-04-01T01:18:23.326Z,931.18
2017-04-01T01:18:42.619Z,931.17
2017-04-01T01:19:01.931Z,931.18
2017-04-01T01:19:21.217Z,931.19
2017-04-01T01:19:40.030Z,931.19
2017-04-01T01:19:59.363Z,931.17
2017-04-01T01:20:18.677Z,931.16
2017-04-01T01:20:38.036Z,931.18
2017-04-01T01:20:57.326Z,931.16
2017-04-01T01:21:16.621Z,931.13
2017-04-01T01:21:35.919Z,931.14
2017-04-01T01:21:55.249Z,931.15
2017-04-01T01:22:14.573Z,931.14
2017-04-01T01:22:33.377Z,931.17
2017-04-01T01:22:51.134Z,931.16
2017-04-01T01:23:10.526Z,931.13
2017-04-01T01:23:30.365Z,931.15
2017-04-01T01:23:49.144Z,931.14
2017-04-01T01:24:08.460Z,931.17
2017-04-01T01:24:27.802Z,931.15
2017-04-01T01:24:46.594Z,931.15
2017-04-01T01:25:05.899Z,931.19
2017-04-01T01:25:25.203Z,931.13
2017-04-01T01:25:44.498Z,931.16
2017-04-01T01:26:03.793Z,931.18
2017-04-01T01:26:22.615Z,931.12
2017-04-01T01:26:40.874Z,931.11
2017-04-01T01:27:00.167Z,931.09
2017-04-01T01:27:19.473Z,931.06
2017-04-01T01:27:38.784Z,931.09
2017-04-01T01:27:58.070Z,931.12
2017-04-01T01:28:17.368Z,931.11
2017-04-01T01:28:36.738Z,931.13
2017-04-01T01:28:55.534Z,931.08
2017-04-01T01:29:14.842Z,931.07
2017-04-01T01:29:33.615Z,931.13
2017-04-01T01:29:52.900Z,931.06
2017-04-01T01:30:11.180Z,931.04
2017-04-01T01:30:30.465Z,931.07
2017-04-01T01:30:49.776Z,931.08
2017-04-01T01:31:09.122Z,931.09
2017-04-01T01:31:27.396Z,931.08
2017-04-01T01:31:46.713Z,931.09
2017-04-01T01:32:06.022Z,931.05
2017-04-01T01:32:24.825Z,931.09
2017-04-01T01:32:44.161Z,931.05
2017-04-01T01:33:03.486Z,931.08
2017-04-01T01:33:22.788Z,931.07
2017-04-01T01:33:41.065Z,931.07
2017-04-01T01:33:59.858Z,931.09
2017-04-01T01:34:18.675Z,931.1
2017-04-01T01:34:38.005Z,931.07
2017-04-01T01:34:57.325Z,931.11
2017-04-01T01:35:15.611Z,931.03
2017-04-01T01:35:34.399Z,931.06
2017-04-01T01:35:53.689Z,931.06
2017-04-01T01:36:12.464Z,931.11
2017-04-01T01:36:31.801Z,931.09
2017-04-01T01:36:51.117Z,931.09
2017-04-01T01:37:10.447Z,931.09
2017-04-01T01:37:29.236Z,931.11
2017-04-01T01:37:48.535Z,931.06
2017-04-01T01:38:07.830Z,931.12
2017-04-01T01:38:27.127Z,931.08
2017-04-01T01:38:46.446Z,931.12
2017-04-01T01:39:05.968Z,931.12
2017-04-01T01:39:24.770Z,931.16
2017-04-01T01:39:43.637Z,931.14
2017-04-01T01:40:02.929Z,931.16
2017-04-01T01:40:21.709Z,931.16
2017-04-01T01:40:41.016Z,931.13
2017-04-01T01:41:00.364Z,931.15
2017-04-01T01:41:19.152Z,931.1
2017-04-01T01:41:37.946Z,931.09
2017-04-01T01:41:57.296Z,931.11
2017-04-01T01:42:16.141Z,931.07
2017-04-01T01:42:34.932Z,931.1
2017-04-01T01:42:54.253Z,931.11
2017-04-01T01:43:13.574Z,931.1
2017-04-01T01:43:32.343Z,931.04
2017-04-01T01:43:51.650Z,931.08
2017-04-01T01:44:10.449Z,931.08
2017-04-01T01:44:29.264Z,931.07
2017-04-01T01:44:47.581Z,931.06
2017-04-01T01:45:06.929Z,931.02
2017-04-01T01:45:25.196Z,931.03
2017-04-01T01:45:44.520Z,931.06
2017-04-01T01:46:03.865Z,931.01
2017-04-01T01:46:22.672Z,931.03
2017-04-01T01:46:41.475Z,931.03
2017-04-01T01:47:00.771Z,930.94
2017-04-01T01:47:19.603Z,931.03
2017-04-01T01:47:38.399Z,931.04
2017-04-01T01:47:56.674Z,931.06
2017-04-01T01:48:15.981Z,930.92
2017-04-01T01:48:35.289Z,930.98
2017-04-01T01:48:54.627Z,931.04
2017-04-01T01:49:14.043Z,931.04
2017-04-01T01:49:33.384Z,931.04
2017-04-01T01:49:52.151Z,931.02
2017-04-01T01:50:11.447Z,931.06
2017-04-01T01:50:30.751Z,931.08
2017-04-01T01:50:49.583Z,931.04
2017-04-01T01:51:08.880Z,931.04
2017-04-01T01:51:28.180Z,931.02
2017-04-01T01:51:47.491Z,931.04
2017-04-01T01:52:06.277Z,931.04
2017-04-01T01:52:25.603Z,931
2017-04-01T01:52:44.921Z,930.99
2017-04-01T01:53:03.742Z,930.95
2017-04-01T01:53:23.048Z,930.98
2017-04-01T01:53:42.358Z,930.98
2017-04-01T01:54:01.678Z,931.04
2017-04-01T01:54:20.991Z,931.02
2017-04-01T01:54:40.293Z,931
2017-04-01T01:54:59.657Z,931.03
2017-04-01T01:55:18.454Z,931.01
2017-04-01T01:55:37.758Z,930.98
2017-04-01T01:55:57.078Z,930.95
2017-04-01T01:56:15.900Z,930.99
2017-04-01T01:56:34.682Z,930.92
2017-04-01T01:56:53.977Z,930.97
2017-04-01T01:57:13.318Z,930.99
2017-04-01T01:57:32.634Z,930.96
2017-04-01T01:57:51.930Z,930.91
2017-04-01T01:58:10.742Z,930.93
2017-04-01T01:58:30.055Z,930.95
2017-04-01T01:58:49.367Z,930.93
2017-04-01T01:59:09.025Z,930.92
2017-04-01T01:59:27.816Z,930.93
2017-04-01T01:59:47.124Z,930.93
2017-04-01T02:00:06.444Z,930.93
2017-04-01T02:00:25.246Z,930.9
2017-04-01T02:00:44.052Z,930.92
2017-04-01T02:01:03.356Z,930.97
2017-04-01T02:01:22.135Z,930.9
2017-04-01T02:01:41.528Z,930.96
2017-04-01T02:02:00.328Z,930.91
2017-04-01T02:02:19.119Z,930.91
2017-04-01T02:02:38.414Z,930.96
2017-04-01T02:02:57.207Z,930.9
2017-04-01T02:03:16.517Z,930.96
2017-04-01T02:03:35.798Z,931.02
2017-04-01T02:03:54.623Z,930.96
2017-04-01T02:04:13.435Z,930.92
2017-04-01T02:04:32.744Z,930.97
2017-04-01T02:04:52.071Z,930.96
2017-04-01T02:05:11.382Z,930.91
2017-04-01T02:05:29.690Z,930.92
2017-04-01T02:05:48.467Z,930.93
2017-04-01T02:06:07.240Z,930.93
2017-04-01T02:06:26.547Z,930.94
2017-04-01T02:06:45.353Z,930.86
2017-04-01T02:07:04.672Z,930.92
2017-04-01T02:07:23.457Z,930.91
2017-04-01T02:07:42.831Z,930.88
2017-04-01T02:08:02.169Z,930.9
2017-04-01T02:08:21.489Z,930.91
2017-04-01T02:08:40.781Z,930.85
2017-04-01T02:09:00.091Z,930.9
2017-04-01T02:09:19.429Z,930.9
2017-04-01T02:09:38.729Z,930.91
2017-04-01T02:09:58.041Z,930.86
2017-04-01T02:10:17.340Z,930.86
2017-04-01T02:10:36.651Z,930.84
2017-04-01T02:10:55.951Z,930.81
2017-04-01T02:11:14.749Z,930.87
2017-04-01T02:11:34.051Z,930.84
2017-04-01T02:11:52.335Z,930.84
2017-04-01T02:12:11.657Z,930.81
2017-04-01T02:12:30.971Z,930.82
2017-04-01T02:12:50.264Z,930.8
2017-04-01T02:13:09.616Z,930.81
2017-04-01T02:13:27.926Z,930.83
2017-04-01T02:13:46.730Z,930.83
2017-04-01T02:14:06.041Z,930.71
2017-04-01T02:14:24.848Z,930.76
2017-04-01T02:14:43.126Z,930.78
2017-04-01T02:15:02.447Z,930.74
2017-04-01T02:15:21.760Z,930.77
2017-04-01T02:15:41.086Z,930.75
2017-04-01T02:15:59.368Z,930.73
2017-04-01T02:16:18.166Z,930.78
2017-04-01T02:16:37.517Z,930.77
2017-04-01T02:16:56.302Z,930.76
2017-04-01T02:17:15.626Z,930.78
2017-04-01T02:17:34.946Z,930.72
2017-04-01T02:17:53.754Z,930.72
2017-04-01T02:18:13.066Z,930.74
2017-04-01T02:18:32.586Z,930.76
2017-04-01T02:18:51.908Z,930.76
2017-04-01T02:19:11.242Z,930.75
2017-04-01T02:19:30.567Z,930.75
2017-04-01T02:19:49.375Z,930.73
2017-04-01T02:20:08.168Z,930.76
2017-04-01T02:20:27.492Z,930.74
2017-04-01T02:20:46.806Z,930.79
2017-04-01T02:21:06.111Z,930.75
2017-04-01T02:21:24.410Z,930.76
2017-04-01T02:21:43.729Z,930.8
2017-04-01T02:22:03.051Z,930.77
2017-04-01T02:22:21.856Z,930.8
2017-04-01T02:22:40.677Z,930.77
2017-04-01T02:22:59.994Z,930.73
2017-04-01T02:23:18.789Z,930.75
2017-04-01T02:23:37.575Z,930.77
2017-04-01T02:23:56.879Z,930.74
2017-04-01T02:24:15.875Z,930.71
2017-04-01T02:24:34.676Z,930.7
2017-04-01T02:24:54.044Z,930.76
2017-04-01T02:25:13.353Z,930.72
2017-04-01T02:25:32.156Z,930.66
2017-04-01T02:25:51.454Z,930.7
2017-04-01T02:26:10.802Z,930.75
2017-04-01T02:26:29.617Z,930.74
2017-04-01T02:26:48.920Z,930.71
2017-04-01T02:27:07.720Z,930.71
2017-04-01T02:27:27.049Z,930.7
2017-04-01T02:27:46.362Z,930.74
2017-04-01T02:28:05.703Z,930.68
2017-04-01T02:28:25.021Z,930.69
2017-04-01T02:28:43.822Z,930.7
2017-04-01T02:29:03.133Z,930.7
2017-04-01T02:29:21.898Z,930.64
2017-04-01T02:29:40.742Z,930.69
2017-04-01T02:30:00.048Z,930.63
2017-04-01T02:30:18.856Z,930.67
2017-04-01T02:30:37.679Z,930.65
2017-04-01T02:30:56.490Z,930.67
2017-04-01T02:31:15.807Z,930.66
2017-04-01T02:31:35.138Z,930.6
2017-04-01T02:31:53.915Z,930.62
2017-04-01T02:32:13.271Z,930.63
2017-04-01T02:32:32.614Z,930.54
2017-04-01T02:32:51.906Z,930.56
2017-04-01T02:33:10.699Z,930.59
2017-04-01T02:33:30.035Z,930.56
2017-04-01T02:33:49.344Z,930.56
2017-04-01T02:34:08.830Z,930.52
2017-04-01T02:34:27.645Z,930.58
2017-04-01T02:34:46.454Z,930.56
2017-04-01T02:35:05.758Z,930.56
2017-04-01T02:35:25.044Z,930.56
2017-04-01T02:35:44.369Z,930.55
2017-04-01T02:36:03.679Z,930.52
2017-04-01T02:36:22.482Z,930.55
2017-04-01T02:36:41.784Z,930.55
2017-04-01T02:37:01.069Z,930.55
2017-04-01T02:37:20.366Z,930.59
2017-04-01T02:37:39.671Z,930.57
2017-04-01T02:37:58.998Z,930.55
2017-04-01T02:38:18.343Z,930.54
2017-04-01T02:38:37.130Z,930.55
2017-04-01T02:38:55.915Z,930.54
2017-04-01T02:39:15.204Z,930.56
2017-04-01T02:39:34.521Z,930.57
2017-04-01T02:39:53.844Z,930.58
2017-04-01T02:40:13.141Z,930.59
2017-04-01T02:40:32.469Z,930.58
2017-04-01T02:40:51.888Z,930.54
2017-04-01T02:41:11.409Z,930.54
2017-04-01T02:41:30.206Z,930.53
2017-04-01T02:41:49.549Z,930.53
2017-04-01T02:42:08.860Z,930.49
2017-04-01T02:42:28.175Z,930.49
2017-04-01T02:42:46.994Z,930.48
2017-04-01T02:43:06.316Z,930.5
2017-04-01T02:43:25.130Z,930.46
2017-04-01T02:43:44.453Z,930.45
2017-04-01T02:44:03.748Z,930.46
2017-04-01T02:44:22.016Z,930.4
2017-04-01T02:44:41.331Z,930.47
2017-04-01T02:45:00.668Z,930.47
2017-04-01T02:45:19.493Z,930.44
2017-04-01T02:45:38.280Z,930.43
2017-04-01T02:45:57.598Z,930.43
2017-04-01T02:46:16.407Z,930.41
2017-04-01T02:46:35.700Z,930.45
2017-04-01T02:46:55.039Z,930.45
2017-04-01T02:47:14.342Z,930.42
2017-04-01T02:47:33.661Z,930.45
2017-04-01T02:47:52.439Z,930.41
2017-04-01T02:48:11.776Z,930.43
2017-04-01T02:48:31.085Z,930.39
2017-04-01T02:48:50.409Z,930.42
2017-04-01T02:49:09.206Z,930.36
2017-04-01T02:49:28.002Z,930.35
2017-04-01T02:49:47.300Z,930.43
2017-04-01T02:50:06.610Z,930.38
2017-04-01T02:50:25.928Z,930.43
2017-04-01T02:50:45.248Z,930.45
2017-04-01T02:51:04.843Z,930.42
2017-04-01T02:51:23.648Z,930.44
2017-04-01T02:51:42.972Z,930.44
2017-04-01T02:52:02.295Z,930.45
2017-04-01T02:52:21.074Z,930.42
2017-04-01T02:52:40.384Z,930.37
2017-04-01T02:52:59.729Z,930.41
2017-04-01T02:53:18.533Z,930.42
2017-04-01T02:53:37.355Z,930.41
2017-04-01T02:53:56.155Z,930.44
2017-04-01T02:54:15.498Z,930.43
2017-04-01T02:54:34.287Z,930.44
2017-04-01T02:54:53.622Z,930.43
2017-04-01T02:55:12.925Z,930.45
2017-04-01T02:55:32.245Z,930.46
2017-04-01T02:55:51.554Z,930.44
2017-04-01T02:56:10.857Z,930.45
2017-04-01T02:56:29.643Z,930.45
2017-04-01T02:56:48.460Z,930.52
2017-04-01T02:57:07.749Z,930.5
2017-04-01T02:57:27.026Z,930.51
2017-04-01T02:57:45.800Z,930.48
2017-04-01T02:58:05.081Z,930.51
2017-04-01T02:58:24.380Z,930.5
2017-04-01T02:58:43.668Z,930.51
2017-04-01T02:59:03.067Z,930.51
2017-04-01T02:59:22.360Z,930.56
2017-04-01T02:59:41.164Z,930.47
2017-04-01T03:00:00.481Z,930.45
2017-04-01T03:00:19.778Z,930.47
2017-04-01T03:00:39.054Z,930.44
2017-04-01T03:00:58.340Z,930.47
2017-04-01T03:01:17.132Z,930.47
2017-04-01T03:01:36.411Z,930.47
2017-04-01T03:01:55.745Z,930.45
2017-04-01T03:02:15.049Z,930.49
2017-04-01T03:02:33.838Z,930.48
2017-04-01T03:02:55.392Z,930.44
2017-04-01T03:03:15.163Z,930.44
2017-04-01T03:03:33.423Z,930.43
2017-04-01T03:03:52.220Z,930.41
2017-04-01T03:04:11.490Z,930.4
2017-04-01T03:04:30.281Z,930.39
2017-04-01T03:04:49.592Z,930.46
2017-04-01T03:05:09.079Z,930.37
2017-04-01T03:05:28.380Z,930.37
2017-04-01T03:05:47.159Z,930.4
2017-04-01T03:06:05.969Z,930.4
2017-04-01T03:06:25.266Z,930.43
2017-04-01T03:06:44.568Z,930.41
2017-04-01T03:07:03.888Z,930.37
2017-04-01T03:07:23.205Z,930.36
2017-04-01T03:07:42.521Z,930.38
2017-04-01T03:08:01.820Z,930.38
2017-04-01T03:08:20.597Z,930.38
2017-04-01T03:08:39.386Z,930.37
2017-04-01T03:08:58.710Z,930.39
2017-04-01T03:09:18.019Z,930.33
2017-04-01T03:09:37.357Z,930.32
2017-04-01T03:09:56.638Z,930.3
2017-04-01T03:10:15.453Z,930.3
2017-04-01T03:10:34.260Z,930.29
2017-04-01T03:10:53.060Z,930.28
2017-04-01T03:11:12.375Z,930.31
2017-04-01T03:11:31.679Z,930.33
2017-04-01T03:11:50.485Z,930.32
2017-04-01T03:12:09.809Z,930.27
2017-04-01T03:12:29.152Z,930.28
2017-04-01T03:12:48.465Z,930.32
2017-04-01T03:13:07.762Z,930.31
2017-04-01T03:13:27.084Z,930.34
2017-04-01T03:13:46.396Z,930.36
2017-04-01T03:14:05.211Z,930.33
2017-04-01T03:14:24.034Z,930.41
2017-04-01T03:14:43.353Z,930.37
2017-04-01T03:15:02.143Z,930.32
2017-04-01T03:15:20.419Z,930.39
2017-04-01T03:15:39.793Z,930.4
2017-04-01T03:15:59.111Z,930.4
2017-04-01T03:16:18.407Z,930.38
2017-04-01T03:16:37.191Z,930.36
2017-04-01T03:16:56.482Z,930.37
2017-04-01T03:17:15.788Z,930.36
2017-04-01T03:17:35.065Z,930.38
2017-04-01T03:17:54.402Z,930.39
2017-04-01T03:18:13.697Z,930.36
2017-04-01T03:18:32.986Z,930.33
2017-04-01T03:18:52.268Z,930.33
2017-04-01T03:19:11.727Z,930.34
2017-04-01T03:19:30.528Z,930.33
2017-04-01T03:19:49.825Z,930.35
2017-04-01T03:20:08.604Z,930.34
2017-04-01T03:20:27.893Z,930.38
2017-04-01T03:20:47.213Z,930.38
2017-04-01T03:21:06.516Z,930.35
2017-04-01T03:21:25.823Z,930.35
2017-04-01T03:21:45.124Z,930.38
2017-04-01T03:22:04.449Z,930.35
2017-04-01T03:22:23.221Z,930.37
2017-04-01T03:22:42.521Z,930.34
2017-04-01T03:23:01.851Z,930.36
2017-04-01T03:23:21.139Z,930.34
2017-04-01T03:23:40.449Z,930.38
2017-04-01T03:23:59.259Z,930.34
2017-04-01T03:24:18.577Z,930.36
2017-04-01T03:24:37.909Z,930.37
2017-04-01T03:24:57.249Z,930.39
2017-04-01T03:25:16.025Z,930.38
2017-04-01T03:25:35.300Z,930.38
2017-04-01T03:25:54.614Z,930.39
2017-04-01T03:26:13.405Z,930.37
2017-04-01T03:26:32.718Z,930.37
2017-04-01T03:26:52.025Z,930.4
2017-04-01T03:27:11.352Z,930.38
2017-04-01T03:27:30.151Z,930.37
2017-04-01T03:27:48.949Z,930.33
2017-04-01T03:28:08.288Z,930.33
2017-04-01T03:28:27.617Z,930.34
2017-04-01T03:28:46.926Z,930.36
2017-04-01T03:29:06.438Z,930.36
2017-04-01T03:29:25.241Z,930.38
2017-04-01T03:29:44.558Z,930.4
2017-04-01T03:30:03.329Z,930.35
2017-04-01T03:30:21.611Z,930.34
2017-04-01T03:30:40.418Z,930.35
2017-04-01T03:30:59.225Z,930.38
2017-04-01T03:31:18.528Z,930.38
2017-04-01T03:31:37.813Z,930.34
2017-04-01T03:31:56.645Z,930.37
2017-04-01T03:32:15.922Z,930.37
2017-04-01T03:32:35.219Z,930.38
2017-04-01T03:32:54.538Z,930.36
2017-04-01T03:33:13.873Z,930.38
2017-04-01T03:33:33.196Z,930.38
2017-04-01T03:33:52.516Z,930.4
2017-04-01T03:34:12.036Z,930.39
2017-04-01T03:34:30.302Z,930.4
2017-04-01T03:34:49.632Z,930.38
2017-04-01T03:35:07.940Z,930.36
2017-04-01T03:35:26.722Z,930.36
2017-04-01T03:35:46.066Z,930.34
2017-04-01T03:36:05.395Z,930.37
2017-04-01T03:36:24.738Z,930.37
2017-04-01T03:36:43.568Z,930.42
2017-04-01T03:37:02.368Z,930.37
2017-04-01T03:37:21.159Z,930.4
2017-04-01T03:37:40.467Z,930.4
2017-04-01T03:37:59.790Z,930.38
2017-04-01T03:38:18.082Z,930.39
2017-04-01T03:38:37.407Z,930.37
2017-04-01T03:38:56.703Z,930.39
2017-04-01T03:39:14.969Z,930.39
2017-04-01T03:39:34.300Z,930.38
2017-04-01T03:39:53.599Z,930.37
2017-04-01T03:40:12.595Z,930.41
2017-04-01T03:40:31.903Z,930.38
2017-04-01T03:40:51.211Z,930.41
2017-04-01T03:41:09.990Z,930.37
2017-04-01T03:41:28.779Z,930.36
2017-04-01T03:41:47.557Z,930.4
2017-04-01T03:42:06.875Z,930.33
2017-04-01T03:42:26.175Z,930.37
2017-04-01T03:42:44.994Z,930.33
2017-04-01T03:43:03.794Z,930.34
2017-04-01T03:43:22.095Z,930.32
2017-04-01T03:43:41.410Z,930.33
2017-04-01T03:44:00.180Z,930.35
2017-04-01T03:44:19.471Z,930.32
2017-04-01T03:44:38.763Z,930.32
2017-04-01T03:44:58.065Z,930.32
2017-04-01T03:45:17.427Z,930.35
2017-04-01T03:45:36.215Z,930.34
2017-04-01T03:45:55.514Z,930.34
2017-04-01T03:46:15.019Z,930.33
2017-04-01T03:46:34.367Z,930.33
2017-04-01T03:46:53.677Z,930.32
2017-04-01T03:47:13.097Z,930.32
2017-04-01T03:47:32.420Z,930.3
2017-04-01T03:47:51.733Z,930.29
2017-04-01T03:48:10.553Z,930.3
2017-04-01T03:48:29.341Z,930.33
2017-04-01T03:48:48.628Z,930.27
2017-04-01T03:49:07.933Z,930.29
2017-04-01T03:49:26.727Z,930.28
2017-04-01T03:49:45.514Z,930.3
2017-04-01T03:50:04.867Z,930.23
2017-04-01T03:50:24.208Z,930.29
2017-04-01T03:50:43.488Z,930.26
2017-04-01T03:51:02.804Z,930.25
2017-04-01T03:51:22.103Z,930.21
2017-04-01T03:51:40.894Z,930.19
2017-04-01T03:52:00.230Z,930.22
2017-04-01T03:52:19.572Z,930.19
2017-04-01T03:52:38.896Z,930.23
2017-04-01T03:52:57.178Z,930.25
2017-04-01T03:53:16.485Z,930.2
2017-04-01T03:53:35.260Z,930.18
2017-04-01T03:53:54.896Z,930.22
2017-04-01T03:54:14.423Z,930.21
2017-04-01T03:54:33.952Z,930.22
2017-04-01T03:54:52.740Z,930.25
2017-04-01T03:55:12.057Z,930.22
2017-04-01T03:55:31.414Z,930.24
2017-04-01T03:55:50.227Z,930.18
2017-04-01T03:56:09.522Z,930.15
2017-04-01T03:56:28.323Z,930.15
2017-04-01T03:56:47.625Z,930.15
2017-04-01T03:57:06.948Z,930.16
2017-04-01T03:57:26.285Z,930.07
2017-04-01T03:57:45.091Z,930.09
2017-04-01T03:58:04.381Z,930.08
2017-04-01T03:58:23.704Z,930.08
2017-04-01T03:58:43.015Z,930.08
2017-04-01T03:59:02.452Z,930.09
2017-04-01T03:59:21.765Z,930.08
2017-04-01T03:59:41.103Z,930.08